Time;durP1;ratioP1;P1;durP2;ratioP2;P2;SDS_P1;SDS_P2;PMS_P1;PMS_P2;Temp;Humidity;BMP_temperature;BMP_pressure;BME280_temperature;BME280_humidity;BME280_pressure;Samples;Min_cycle;Max_cycle;Signal;HPM_P1;HPM_P2
2023/10/21 00:01:28;;;;;;;29.23;9.43;;;;;;;12.13;100.00;98295.50;6082145;19;20003;-70
2023/10/21 00:03:36;;;;;;;24.20;8.93;;;;;;;12.06;100.00;98293.41;6082720;19;20422;-70
2023/10/21 00:05:42;;;;;;;18.23;8.18;;;;;;;11.99;100.00;98294.06;6082825;19;20009;-72
2023/10/21 00:07:52;;;;;;;18.45;8.45;;;;;;;11.94;100.00;98291.84;6085201;19;20505;-71
2023/10/21 00:09:58;;;;;;;30.92;8.25;;;;;;;11.93;100.00;98294.59;6085246;19;20006;-70
2023/10/21 00:12:04;;;;;;;24.13;9.27;;;;;;;11.89;100.00;98291.41;6082496;19;20035;-71
2023/10/21 00:14:10;;;;;;;20.90;8.30;;;;;;;11.86;100.00;98292.50;6082257;19;20010;-71
2023/10/21 00:16:18;;;;;;;17.77;6.68;;;;;;;11.85;100.00;98295.25;6081893;19;20038;-71
2023/10/21 00:18:23;;;;;;;27.70;9.65;;;;;;;11.81;100.00;98297.28;6081178;19;20033;-71
2023/10/21 00:20:28;;;;;;;18.00;8.27;;;;;;;11.77;100.00;98302.94;6080859;19;20018;-71
2023/10/21 00:22:35;;;;;;;19.02;7.65;;;;;;;11.81;100.00;98304.34;6081561;19;20010;-71
2023/10/21 00:24:40;;;;;;;21.95;8.85;;;;;;;11.93;100.00;98307.75;6080476;19;20088;-71
2023/10/21 00:26:55;;;;;;;19.73;7.70;;;;;;;11.98;100.00;98310.81;6082918;19;20002;-72
2023/10/21 00:28:58;;;;;;;23.52;7.63;;;;;;;12.00;100.00;98312.34;6081853;19;20048;-73
2023/10/21 00:31:05;;;;;;;26.70;7.85;;;;;;;11.97;100.00;98311.78;6080429;19;20045;-70
2023/10/21 00:33:12;;;;;;;20.00;7.85;;;;;;;12.01;100.00;98313.19;6082121;19;20010;-71
2023/10/21 00:35:18;;;;;;;22.20;8.10;;;;;;;12.08;100.00;98316.94;6083350;19;20023;-70
2023/10/21 00:37:23;;;;;;;18.80;8.63;;;;;;;12.11;100.00;98323.75;6082646;19;20554;-71
2023/10/21 00:39:28;;;;;;;20.65;7.60;;;;;;;12.08;100.00;98322.22;6075373;19;20115;-71
2023/10/21 00:41:33;;;;;;;20.50;8.25;;;;;;;12.13;100.00;98325.28;6082950;19;20042;-71
2023/10/21 00:43:39;;;;;;;20.33;8.32;;;;;;;12.05;100.00;98322.47;6085568;19;20828;-71
2023/10/21 00:45:41;;;;;;;18.55;8.52;;;;;;;12.13;100.00;98335.81;6081666;19;20471;-70
2023/10/21 00:47:50;;;;;;;20.70;7.80;;;;;;;12.08;100.00;98343.28;6088840;19;20013;-71
2023/10/21 00:50:01;;;;;;;25.25;8.75;;;;;;;12.07;100.00;98336.34;6088652;19;20010;-70
2023/10/21 00:52:07;;;;;;;24.55;8.65;;;;;;;12.07;100.00;98331.09;6082986;19;21160;-71
2023/10/21 00:54:13;;;;;;;22.67;6.97;;;;;;;12.03;100.00;98343.69;6088017;19;20015;-72
2023/10/21 00:56:18;;;;;;;25.17;7.45;;;;;;;12.06;100.00;98348.69;6080709;19;20003;-71
2023/10/21 00:58:25;;;;;;;21.20;8.20;;;;;;;12.09;100.00;98344.97;6083533;19;20014;-71
2023/10/21 01:00:30;;;;;;;21.13;7.82;;;;;;;12.11;100.00;98350.06;6085636;19;20029;-71
2023/10/21 01:02:35;;;;;;;22.52;8.63;;;;;;;12.08;100.00;98351.16;6084560;19;20006;-70
2023/10/21 01:04:40;;;;;;;19.38;7.25;;;;;;;12.02;100.00;98354.34;6082840;19;19999;-72
2023/10/21 01:06:49;;;;;;;24.92;8.57;;;;;;;12.12;100.00;98360.47;6087412;19;20021;-72
2023/10/21 01:08:54;;;;;;;24.73;7.68;;;;;;;12.11;100.00;98353.53;6085796;19;20006;-73
2023/10/21 01:10:59;;;;;;;31.23;7.90;;;;;;;12.08;100.00;98359.91;6087624;19;20401;-70
2023/10/21 01:13:04;;;;;;;23.20;8.77;;;;;;;12.02;100.00;98359.59;6086654;19;20748;-71
2023/10/21 01:15:11;;;;;;;17.42;7.70;;;;;;;12.02;100.00;98362.22;6089156;19;20010;-71
2023/10/21 01:17:17;;;;;;;23.90;8.75;;;;;;;11.94;100.00;98362.06;6086031;19;20003;-70
2023/10/21 01:19:22;;;;;;;17.98;7.70;;;;;;;11.95;100.00;98361.09;6085463;19;20023;-73
2023/10/21 01:21:27;;;;;;;16.77;7.00;;;;;;;11.95;100.00;98364.53;6082707;19;20002;-71
2023/10/21 01:23:33;;;;;;;20.90;8.40;;;;;;;11.90;100.00;98369.41;6080896;19;20030;-70
2023/10/21 01:25:38;;;;;;;27.70;9.57;;;;;;;11.86;100.00;98366.19;6082361;19;20078;-70
2023/10/21 01:27:45;;;;;;;23.35;9.13;;;;;;;11.86;100.00;98373.25;6083321;19;20011;-71
2023/10/21 01:29:48;;;;;;;21.83;9.35;;;;;;;11.88;100.00;98383.66;6083245;19;20028;-71
2023/10/21 01:31:58;;;;;;;24.38;9.13;;;;;;;11.83;100.00;98384.81;6084677;19;20038;-70
2023/10/21 01:34:01;;;;;;;24.60;9.02;;;;;;;11.83;100.00;98382.19;6089408;19;20020;-70
2023/10/21 01:36:06;;;;;;;18.63;8.50;;;;;;;11.82;100.00;98379.69;6091087;19;20624;-70
2023/10/21 01:38:11;;;;;;;26.65;10.05;;;;;;;11.77;100.00;98382.72;6089253;19;20374;-70
2023/10/21 01:40:16;;;;;;;22.33;8.65;;;;;;;11.75;100.00;98382.03;6089903;19;20014;-70
2023/10/21 01:42:21;;;;;;;19.48;7.72;;;;;;;11.72;100.00;98384.09;6085356;19;20011;-72
2023/10/21 01:44:26;;;;;;;26.88;10.15;;;;;;;11.68;100.00;98385.28;6089295;19;20035;-70
2023/10/21 01:46:32;;;;;;;22.92;8.65;;;;;;;11.66;100.00;98385.41;6090409;19;20452;-70
2023/10/21 01:48:37;;;;;;;19.95;8.38;;;;;;;11.67;100.00;98392.34;6091249;19;20030;-71
2023/10/21 01:50:44;;;;;;;25.23;9.32;;;;;;;11.63;100.00;98388.31;6090441;19;20015;-70
2023/10/21 01:52:49;;;;;;;24.20;10.13;;;;;;;11.65;100.00;98386.38;6083903;19;20451;-70
2023/10/21 01:54:53;;;;;;;28.52;10.43;;;;;;;11.58;100.00;98393.94;6090121;19;20070;-70
2023/10/21 01:57:01;;;;;;;21.52;8.43;;;;;;;11.59;100.00;98397.44;6089778;19;20082;-71
2023/10/21 01:59:06;;;;;;;24.85;8.85;;;;;;;11.59;100.00;98397.44;6089726;19;20011;-70
2023/10/21 02:01:12;;;;;;;25.63;9.02;;;;;;;11.58;100.00;98401.00;6082995;19;20625;-71
2023/10/21 02:03:17;;;;;;;19.23;8.60;;;;;;;11.58;100.00;98408.91;6089000;19;20471;-71
2023/10/21 02:05:23;;;;;;;22.73;9.13;;;;;;;11.65;100.00;98413.53;6090833;19;20336;-70
2023/10/21 02:07:29;;;;;;;21.80;9.23;;;;;;;11.63;100.00;98418.06;6089811;19;20341;-71
2023/10/21 02:09:34;;;;;;;20.35;9.55;;;;;;;11.67;100.00;98425.72;6086959;19;20031;-72
2023/10/21 02:11:41;;;;;;;23.77;9.02;;;;;;;11.70;100.00;98428.94;6088253;19;20121;-70
2023/10/21 02:13:48;;;;;;;26.50;9.27;;;;;;;11.74;100.00;98424.22;6085135;19;20026;-71
2023/10/21 02:15:53;;;;;;;26.67;10.00;;;;;;;11.72;100.00;98420.91;6073521;19;20110;-71
2023/10/21 02:18:01;;;;;;;21.13;8.65;;;;;;;11.77;100.00;98434.50;6083496;19;20017;-71
2023/10/21 02:20:06;;;;;;;19.45;8.93;;;;;;;11.75;100.00;98429.38;6081816;19;20090;-71
2023/10/21 02:22:11;;;;;;;21.20;8.95;;;;;;;11.82;100.00;98438.44;6077379;19;20466;-70
2023/10/21 02:24:16;;;;;;;24.70;10.00;;;;;;;11.79;100.00;98441.28;6077261;19;20007;-71
2023/10/21 02:26:22;;;;;;;29.77;10.80;;;;;;;11.85;100.00;98446.06;6075685;19;20034;-70
2023/10/21 02:28:27;;;;;;;24.08;9.20;;;;;;;11.84;100.00;98452.28;6078243;19;20547;-70
2023/10/21 02:30:34;;;;;;;22.40;9.98;;;;;;;11.80;100.00;98448.25;6080887;19;20034;-69
2023/10/21 02:32:42;;;;;;;29.40;9.18;;;;;;;11.84;100.00;98447.00;6082877;19;20006;-72
2023/10/21 02:34:47;;;;;;;19.95;9.55;;;;;;;11.85;100.00;98451.31;6079422;19;20010;-72
2023/10/21 02:36:52;;;;;;;23.60;9.63;;;;;;;11.86;100.00;98449.56;6079319;19;20570;-72
2023/10/21 02:39:01;;;;;;;20.85;8.88;;;;;;;11.90;100.00;98445.72;6081057;19;20014;-70
2023/10/21 02:41:07;;;;;;;25.83;9.07;;;;;;;11.89;100.00;98443.19;6075425;19;20033;-69
2023/10/21 02:43:12;;;;;;;27.50;9.63;;;;;;;11.94;100.00;98452.38;6078551;19;20023;-71
2023/10/21 02:45:17;;;;;;;27.38;10.02;;;;;;;11.91;100.00;98454.44;6080335;19;20018;-71
2023/10/21 02:47:25;;;;;;;24.00;8.93;;;;;;;11.94;100.00;98456.81;6079427;19;20007;-71
2023/10/21 02:49:32;;;;;;;21.45;8.43;;;;;;;11.91;100.00;98454.44;6081348;19;20029;-70
2023/10/21 02:51:39;;;;;;;24.77;9.25;;;;;;;11.86;100.00;98455.66;6079188;19;20011;-71
2023/10/21 02:53:47;;;;;;;25.27;9.13;;;;;;;11.85;100.00;98456.59;6077845;19;20119;-72
2023/10/21 02:58:31;;;;;;;22.35;7.88;;;;;;;11.94;100.00;98451.53;5973370;19;2004989;-73
2023/10/21 03:00:36;;;;;;;20.58;8.95;;;;;;;11.93;100.00;98457.75;6075370;19;20018;-72
2023/10/21 03:02:44;;;;;;;23.17;7.68;;;;;;;11.90;100.00;98464.13;6078262;19;20006;-71
2023/10/21 03:04:49;;;;;;;19.90;8.48;;;;;;;11.90;100.00;98471.16;6077123;19;20131;-71
2023/10/21 03:06:54;;;;;;;20.50;7.55;;;;;;;11.92;100.00;98475.34;6077775;19;20526;-71
2023/10/21 03:08:59;;;;;;;19.17;7.53;;;;;;;11.86;100.00;98478.50;6079507;19;20002;-71
2023/10/21 03:11:05;;;;;;;18.75;8.38;;;;;;;11.95;100.00;98479.53;6076311;19;20006;-71
2023/10/21 03:13:10;;;;;;;23.90;9.10;;;;;;;11.95;100.00;98485.63;6079202;19;20581;-71
2023/10/21 03:15:15;;;;;;;23.00;7.85;;;;;;;11.92;100.00;98492.94;6077764;19;20007;-71
2023/10/21 03:17:19;;;;;;;17.42;7.72;;;;;;;11.93;100.00;98489.34;6078187;19;20082;-71
2023/10/21 03:19:26;;;;;;;22.95;7.95;;;;;;;11.89;100.00;98490.56;6080196;19;20451;-71
2023/10/21 03:21:32;;;;;;;17.77;8.00;;;;;;;11.83;100.00;98490.09;6079361;19;20017;-71
2023/10/21 03:23:37;;;;;;;18.73;8.02;;;;;;;11.81;100.00;98499.91;6079009;19;20055;-71
2023/10/21 03:25:42;;;;;;;19.88;8.85;;;;;;;11.80;100.00;98495.59;6079274;19;20010;-71
2023/10/21 03:27:50;;;;;;;22.65;8.05;;;;;;;11.80;100.00;98498.25;6080088;19;20028;-71
2023/10/21 03:29:58;;;;;;;24.90;8.95;;;;;;;11.82;100.00;98501.59;6079297;19;20010;-71
2023/10/21 03:32:04;;;;;;;23.88;8.70;;;;;;;11.83;100.00;98505.03;6080497;19;20364;-71
2023/10/21 03:34:09;;;;;;;25.77;9.77;;;;;;;11.83;100.00;98507.69;6073477;19;20035;-70
2023/10/21 03:36:14;;;;;;;23.30;8.93;;;;;;;11.81;100.00;98506.97;6072519;19;20011;-71
2023/10/21 03:38:22;;;;;;;18.42;8.40;;;;;;;11.76;100.00;98506.50;6079573;19;20010;-70
2023/10/21 03:40:33;;;;;;;22.27;8.15;;;;;;;11.71;100.00;98508.69;6077167;19;20017;-70
2023/10/21 03:42:41;;;;;;;19.83;8.45;;;;;;;11.72;100.00;98507.75;6077916;19;20193;-70
2023/10/21 03:44:49;;;;;;;24.25;8.60;;;;;;;11.69;100.00;98510.59;6078033;19;20007;-70
2023/10/21 03:46:54;;;;;;;21.73;8.63;;;;;;;11.67;100.00;98508.09;6080452;19;20049;-70
2023/10/21 03:48:59;;;;;;;20.20;8.13;;;;;;;11.64;100.00;98517.09;6072418;19;19999;-72
2023/10/21 03:51:06;;;;;;;22.38;7.80;;;;;;;11.65;100.00;98517.91;6077540;19;20010;-71
2023/10/21 03:53:13;;;;;;;24.27;8.35;;;;;;;11.65;100.00;98525.81;6073248;19;20023;-70
2023/10/21 03:55:19;;;;;;;15.80;7.60;;;;;;;11.59;100.00;98528.94;6079264;19;20014;-70
2023/10/21 03:57:24;;;;;;;19.77;8.55;;;;;;;11.53;100.00;98529.44;6078887;19;20015;-71
2023/10/21 03:59:29;;;;;;;22.00;9.45;;;;;;;11.61;100.00;98532.28;6077846;19;20528;-71
2023/10/21 04:01:36;;;;;;;23.25;8.85;;;;;;;11.63;100.00;98538.25;6077086;19;20054;-70
2023/10/21 04:03:41;;;;;;;21.40;8.45;;;;;;;11.70;100.00;98539.44;6077234;19;20114;-70
2023/10/21 04:05:50;;;;;;;18.65;7.97;;;;;;;11.76;100.00;98548.59;6072486;19;20007;-71
2023/10/21 04:07:55;;;;;;;18.02;7.65;;;;;;;11.70;100.00;98544.69;6076747;19;20030;-70
2023/10/21 04:10:03;;;;;;;17.50;8.18;;;;;;;11.65;100.00;98547.69;6076645;19;20503;-70
2023/10/21 04:12:09;;;;;;;21.15;7.32;;;;;;;11.61;100.00;98545.41;6079303;19;20500;-70
2023/10/21 04:14:14;;;;;;;23.58;8.10;;;;;;;11.61;100.00;98555.94;6077115;19;20431;-70
2023/10/21 04:16:22;;;;;;;21.65;7.38;;;;;;;11.63;100.00;98554.03;6067819;19;20007;-70
2023/10/21 04:18:27;;;;;;;20.27;6.97;;;;;;;11.67;100.00;98554.63;6078068;19;20069;-71
2023/10/21 04:20:33;;;;;;;18.02;7.20;;;;;;;11.68;100.00;98562.38;6080806;19;20418;-71
2023/10/21 04:22:38;;;;;;;21.33;8.15;;;;;;;11.78;100.00;98567.75;6084603;19;20367;-71
2023/10/21 04:24:44;;;;;;;23.42;6.45;;;;;;;11.68;100.00;98566.81;6079749;19;20039;-71
2023/10/21 04:26:51;;;;;;;13.85;7.35;;;;;;;11.72;100.00;98571.72;6083485;19;20011;-70
2023/10/21 04:28:57;;;;;;;17.77;6.40;;;;;;;11.77;100.00;98577.44;6081839;19;20466;-70
2023/10/21 04:31:02;;;;;;;19.13;6.28;;;;;;;11.79;100.00;98586.00;6084938;19;20007;-70
2023/10/21 04:33:07;;;;;;;20.67;6.13;;;;;;;11.90;100.00;98582.56;6081672;19;20094;-70
2023/10/21 04:35:12;;;;;;;14.25;5.38;;;;;;;12.00;100.00;98596.63;6082093;19;20034;-70
2023/10/21 04:37:17;;;;;;;18.98;5.90;;;;;;;12.02;100.00;98593.88;6083297;19;20014;-70
2023/10/21 04:39:22;;;;;;;19.95;6.90;;;;;;;12.10;100.00;98604.59;6083486;19;20097;-71
2023/10/21 04:41:27;;;;;;;20.75;6.53;;;;;;;12.11;100.00;98606.25;6084002;19;20019;-71
2023/10/21 04:43:34;;;;;;;21.52;7.80;;;;;;;12.18;100.00;98598.69;6084245;19;20447;-71
2023/10/21 04:45:39;;;;;;;21.05;6.80;;;;;;;12.19;100.00;98609.13;6084317;19;20007;-71
2023/10/21 04:47:48;;;;;;;24.00;7.70;;;;;;;12.16;100.00;98609.34;6080847;19;20011;-71
2023/10/21 04:49:53;;;;;;;20.15;7.82;;;;;;;12.17;100.00;98613.66;6082582;19;20014;-71
2023/10/21 04:51:58;;;;;;;29.33;8.55;;;;;;;12.18;100.00;98611.88;6085052;19;20009;-71
2023/10/21 04:54:03;;;;;;;19.98;8.68;;;;;;;12.18;100.00;98606.59;6081997;19;20017;-70
2023/10/21 04:56:08;;;;;;;19.83;8.30;;;;;;;12.25;100.00;98605.13;6084746;19;20431;-71
2023/10/21 04:58:19;;;;;;;21.48;8.90;;;;;;;12.22;100.00;98618.56;6083818;19;20628;-70
2023/10/21 05:00:30;;;;;;;21.52;7.30;;;;;;;12.21;100.00;98633.50;6085844;19;20082;-72
2023/10/21 05:02:35;;;;;;;18.73;8.07;;;;;;;12.25;100.00;98640.19;5992163;19;2004793;-71
2023/10/21 05:04:48;;;;;;;16.35;7.60;;;;;;;12.24;100.00;98637.69;6073513;19;20451;-71
2023/10/21 05:06:53;;;;;;;22.05;8.18;;;;;;;12.24;100.00;98638.53;6075565;19;20011;-71
2023/10/21 05:09:03;;;;;;;23.25;7.97;;;;;;;12.27;100.00;98642.72;6078804;19;20038;-70
2023/10/21 05:11:13;;;;;;;21.50;7.60;;;;;;;12.27;100.00;98638.28;6077721;19;20007;-70
2023/10/21 05:13:23;;;;;;;13.45;7.00;;;;;;;12.26;100.00;98641.84;6076510;19;20007;-70
2023/10/21 05:15:33;;;;;;;23.42;7.65;;;;;;;12.30;100.00;98640.66;6076855;19;19999;-71
2023/10/21 05:17:38;;;;;;;21.35;7.07;;;;;;;12.31;100.00;98652.03;6076864;19;20014;-71
2023/10/21 05:19:46;;;;;;;16.52;6.72;;;;;;;12.40;100.00;98648.63;6082073;19;20020;-70
2023/10/21 05:21:57;;;;;;;21.42;6.90;;;;;;;12.41;100.00;98660.00;6083603;19;20050;-71
2023/10/21 05:24:10;;;;;;;20.33;7.55;;;;;;;12.43;100.00;98655.44;6074433;19;20412;-70
2023/10/21 05:26:12;;;;;;;20.27;6.28;;;;;;;12.47;100.00;98659.47;6078779;19;20023;-70
2023/10/21 05:28:22;;;;;;;17.05;6.00;;;;;;;12.44;100.00;98665.00;6086353;19;20011;-71
2023/10/21 05:30:25;;;;;;;17.30;6.80;;;;;;;12.41;100.00;98670.53;6084399;19;20010;-71
2023/10/21 05:32:32;;;;;;;16.65;6.35;;;;;;;12.40;100.00;98664.44;6086503;19;20383;-71
2023/10/21 05:34:46;;;;;;;16.58;6.82;;;;;;;12.32;100.00;98666.84;6086490;19;20504;-69
2023/10/21 05:36:51;;;;;;;18.25;7.57;;;;;;;12.33;100.00;98662.44;6084553;19;20023;-72
2023/10/21 05:38:56;;;;;;;21.33;7.60;;;;;;;12.29;100.00;98667.94;6082913;19;20007;-71
2023/10/21 05:41:01;;;;;;;18.35;7.13;;;;;;;12.26;100.00;98668.19;6082349;19;20006;-71
2023/10/21 05:43:06;;;;;;;23.92;6.63;;;;;;;12.22;100.00;98682.59;6076992;19;20018;-71
2023/10/21 05:45:14;;;;;;;18.40;6.60;;;;;;;12.23;100.00;98673.72;6081856;19;20028;-70
2023/10/21 05:47:20;;;;;;;13.50;6.35;;;;;;;12.17;100.00;98690.03;6077583;19;20003;-70
2023/10/21 05:49:38;;;;;;;18.20;7.00;;;;;;;12.25;100.00;98684.13;6081902;19;20080;-71
2023/10/21 05:51:44;;;;;;;14.40;6.35;;;;;;;12.20;100.00;98695.03;6079871;19;20078;-70
2023/10/21 05:53:50;;;;;;;18.33;7.25;;;;;;;12.24;100.00;98687.72;6077258;19;20078;-70
2023/10/21 05:55:57;;;;;;;23.20;7.55;;;;;;;12.26;100.00;98693.69;6081566;19;20052;-70
2023/10/21 05:58:13;;;;;;;15.90;6.80;;;;;;;12.24;100.00;98703.50;6077459;19;20095;-73
2023/10/21 06:00:19;;;;;;;18.85;8.15;;;;;;;12.22;100.00;98695.75;6080973;19;20431;-71
2023/10/21 06:02:24;;;;;;;17.42;7.05;;;;;;;12.23;100.00;98710.59;6082566;19;20487;-71
2023/10/21 06:04:32;;;;;;;18.30;7.68;;;;;;;12.27;100.00;98714.66;6081038;19;20515;-70
2023/10/21 06:06:41;;;;;;;17.05;7.28;;;;;;;12.33;100.00;98710.69;6073993;19;20030;-70
2023/10/21 06:08:48;;;;;;;19.35;7.38;;;;;;;12.28;100.00;98726.00;6080478;19;20041;-70
2023/10/21 06:10:59;;;;;;;17.00;7.63;;;;;;;12.38;100.00;98728.75;6080956;19;20078;-71
2023/10/21 06:13:05;;;;;;;20.67;7.78;;;;;;;12.36;100.00;98730.66;6069958;19;20010;-69
2023/10/21 06:15:11;;;;;;;16.77;7.20;;;;;;;12.34;100.00;98728.13;6078826;19;20017;-72
2023/10/21 06:17:16;;;;;;;16.35;6.57;;;;;;;12.36;100.00;98735.94;6077728;19;20015;-71
2023/10/21 06:19:39;;;;;;;18.40;7.38;;;;;;;12.38;100.00;98740.13;6075854;19;20084;-71
2023/10/21 06:21:46;;;;;;;28.75;7.68;;;;;;;12.37;100.00;98742.84;6077985;19;20002;-72
2023/10/21 06:23:51;;;;;;;14.93;6.97;;;;;;;12.39;100.00;98748.84;6078339;19;20015;-70
2023/10/21 06:26:02;;;;;;;19.23;7.43;;;;;;;12.44;100.00;98754.56;6073060;19;20437;-70
2023/10/21 06:28:05;;;;;;;16.92;7.20;;;;;;;12.44;100.00;98758.03;6077185;19;20011;-70
2023/10/21 06:30:10;;;;;;;;;;;;;;;12.46;100.00;98768.47;6075402;19;21413;-70
2023/10/21 06:32:16;;;;;;;18.23;8.00;;;;;;;12.46;100.00;98764.03;6078355;19;20296;-71
2023/10/21 06:34:24;;;;;;;14.57;7.00;;;;;;;12.50;100.00;98764.59;6077979;19;20011;-72
2023/10/21 06:36:30;;;;;;;16.02;6.50;;;;;;;12.49;100.00;98768.22;6078349;19;20020;-70
2023/10/21 06:38:37;;;;;;;15.15;7.10;;;;;;;12.49;100.00;98774.31;6080553;19;20447;-71
2023/10/21 06:40:46;;;;;;;20.20;7.55;;;;;;;12.48;100.00;98780.56;6085659;19;20130;-71
2023/10/21 06:43:10;;;;;;;20.73;7.15;;;;;;;12.54;100.00;98792.38;6081314;19;20019;-70
2023/10/21 06:45:26;;;;;;;16.23;6.20;;;;;;;12.52;100.00;98787.22;6087542;19;20018;-71
2023/10/21 06:47:35;;;;;;;17.98;6.93;;;;;;;12.54;100.00;98795.03;6086043;19;20082;-71
2023/10/21 06:49:41;;;;;;;16.48;7.03;;;;;;;12.53;100.00;98801.22;6080755;19;20031;-72
2023/10/21 06:51:48;;;;;;;14.88;7.03;;;;;;;12.53;100.00;98798.59;6085302;19;20027;-70
2023/10/21 06:53:59;;;;;;;19.33;6.63;;;;;;;12.55;100.00;98807.22;6084286;19;20025;-71
2023/10/21 06:56:04;;;;;;;15.20;5.90;;;;;;;12.56;100.00;98808.91;6087198;19;20019;-71
2023/10/21 06:58:07;;;;;;;17.73;6.80;;;;;;;12.59;100.00;98810.47;6087458;19;20007;-70
2023/10/21 07:00:14;;;;;;;13.55;6.10;;;;;;;12.59;100.00;98813.94;6084664;19;20486;-70
2023/10/21 07:02:19;;;;;;;18.92;7.28;;;;;;;12.63;100.00;98822.41;6082615;19;20382;-70
2023/10/21 07:04:27;;;;;;;15.52;6.03;;;;;;;12.60;100.00;98841.09;6080538;19;20002;-71
2023/10/21 07:06:32;;;;;;;17.20;6.47;;;;;;;12.67;100.00;98827.31;6082376;19;20010;-71
2023/10/21 07:08:37;;;;;;;19.85;7.68;;;;;;;12.65;100.00;98836.31;6078319;19;20002;-70
2023/10/21 07:10:52;;;;;;;16.23;7.03;;;;;;;12.63;100.00;98832.94;6081861;19;20010;-72
2023/10/21 07:13:01;;;;;;;15.90;7.05;;;;;;;12.64;100.00;98837.28;6080119;19;20580;-71
2023/10/21 07:15:09;;;;;;;12.95;6.57;;;;;;;12.68;100.00;98843.94;6082832;19;20006;-71
2023/10/21 07:17:19;;;;;;;16.90;7.50;;;;;;;12.70;100.00;98850.78;6079935;19;20007;-72
2023/10/21 07:19:24;;;;;;;16.67;6.97;;;;;;;12.67;100.00;98866.84;6081325;19;20010;-71
2023/10/21 07:24:00;;;;;;;13.43;7.03;;;;;;;12.69;100.00;98854.38;6082931;19;20006;-70
2023/10/21 07:26:07;;;;;;;22.00;7.10;;;;;;;12.72;100.00;98871.75;6080059;19;20639;-71
2023/10/21 07:28:13;;;;;;;14.60;6.53;;;;;;;12.72;100.00;98875.22;6074193;19;20519;-72
2023/10/21 07:30:23;;;;;;;15.80;6.68;;;;;;;12.70;100.00;98874.50;6079893;19;19998;-71
2023/10/21 07:32:28;;;;;;;18.35;6.70;;;;;;;12.69;100.00;98878.09;6080102;19;20011;-71
2023/10/21 07:34:42;;;;;;;18.48;7.68;;;;;;;12.69;100.00;98870.19;6078148;19;20094;-71
2023/10/21 07:36:50;;;;;;;13.88;7.65;;;;;;;12.74;100.00;98878.56;6080327;19;20042;-71
2023/10/21 07:38:58;;;;;;;16.85;7.25;;;;;;;12.70;100.00;98874.50;6081804;19;20652;-74
2023/10/21 07:41:14;;;;;;;16.27;7.63;;;;;;;12.71;100.00;98883.22;6082234;19;20838;-70
2023/10/21 07:43:20;;;;;;;16.48;7.22;;;;;;;12.70;100.00;98889.47;6077168;19;20358;-70
2023/10/21 07:45:25;;;;;;;16.00;6.88;;;;;;;12.72;100.00;98891.03;6079870;19;20023;-71
2023/10/21 07:47:30;;;;;;;13.02;5.93;;;;;;;12.73;100.00;98900.59;6081636;19;20007;-73
2023/10/21 07:49:36;;;;;;;14.77;5.30;;;;;;;12.72;100.00;98893.66;6075755;19;20038;-72
2023/10/21 07:51:45;;;;;;;11.95;6.03;;;;;;;12.69;100.00;98912.38;6078438;19;20018;-70
2023/10/21 07:53:51;;;;;;;16.55;6.05;;;;;;;12.72;100.00;98914.75;6077115;19;20002;-72
2023/10/21 07:55:56;;;;;;;13.88;5.68;;;;;;;12.76;100.00;98911.84;6079823;19;20448;-71
2023/10/21 07:58:04;;;;;;;13.85;5.85;;;;;;;12.74;100.00;98920.75;6080095;19;20478;-71
2023/10/21 08:00:13;;;;;;;12.07;5.40;;;;;;;12.74;100.00;98917.25;6081230;19;20011;-70
2023/10/21 08:02:21;;;;;;;11.55;5.65;;;;;;;12.69;100.00;98916.78;6082872;19;20010;-72
2023/10/21 08:04:26;;;;;;;9.80;4.97;;;;;;;12.69;100.00;98922.03;6082002;19;20407;-71
2023/10/21 08:06:31;;;;;;;11.13;4.82;;;;;;;12.67;100.00;98927.44;6076496;19;20027;-72
2023/10/21 08:08:39;;;;;;;12.32;4.90;;;;;;;12.68;100.00;98929.13;6076273;19;20018;-70
2023/10/21 08:10:49;;;;;;;11.75;4.85;;;;;;;12.67;100.00;98940.63;6079566;19;20003;-72
2023/10/21 08:12:54;;;;;;;7.78;4.05;;;;;;;12.68;100.00;98938.81;6082266;19;20374;-71
2023/10/21 08:15:07;;;;;;;9.27;4.22;;;;;;;12.62;100.00;98950.69;6084825;19;20079;-71
2023/10/21 08:17:12;;;;;;;7.63;3.75;;;;;;;12.61;100.00;98959.56;6084524;19;20010;-72
2023/10/21 08:19:18;;;;;;;8.93;3.95;;;;;;;12.61;100.00;98962.19;6081268;19;20006;-71
2023/10/21 08:21:24;;;;;;;11.25;3.95;;;;;;;12.63;100.00;98962.91;6073723;19;19998;-70
2023/10/21 08:23:32;;;;;;;7.43;2.92;;;;;;;12.78;100.00;98970.56;6078851;19;20038;-70
2023/10/21 08:25:37;;;;;;;6.50;3.05;;;;;;;12.82;100.00;98980.75;6083247;19;20018;-71
2023/10/21 08:27:42;;;;;;;6.13;3.00;;;;;;;12.80;100.00;98982.66;6082803;19;20034;-70
2023/10/21 08:29:48;;;;;;;3.75;2.25;;;;;;;12.79;100.00;98986.25;6084371;19;20015;-70
2023/10/21 08:31:58;;;;;;;4.35;2.10;;;;;;;12.73;100.00;98990.19;6083284;19;20582;-71
2023/10/21 08:34:05;;;;;;;8.77;2.55;;;;;;;12.70;100.00;98995.72;6084612;19;20030;-70
2023/10/21 08:36:18;;;;;;;6.55;2.50;;;;;;;12.66;100.00;98996.91;6084473;19;20011;-70
2023/10/21 08:38:24;;;;;;;4.40;2.08;;;;;;;12.63;100.00;99001.59;6081189;19;20033;-73
2023/10/21 08:40:29;;;;;;;5.50;2.10;;;;;;;12.68;100.00;99004.72;6085224;19;20094;-72
2023/10/21 08:42:34;;;;;;;6.85;2.50;;;;;;;12.64;100.00;98993.56;6083416;19;20478;-72
2023/10/21 08:45:06;;;;;;;6.63;2.47;;;;;;;12.70;100.00;99008.91;6085114;19;20038;-71
2023/10/21 08:47:16;;;;;;;4.40;2.10;;;;;;;12.68;100.00;99002.91;6080990;19;20014;-70
2023/10/21 08:49:22;;;;;;;9.40;2.47;;;;;;;12.66;100.00;98998.72;6082302;19;20011;-71
2023/10/21 08:51:28;;;;;;;7.05;2.30;;;;;;;12.68;100.00;99015.25;6076361;19;20014;-71
2023/10/21 08:53:38;;;;;;;7.03;2.42;;;;;;;12.65;100.00;99016.31;6080578;19;20120;-73
2023/10/21 08:55:44;;;;;;;6.03;2.25;;;;;;;12.67;100.00;99013.59;6083961;19;20043;-71
2023/10/21 08:57:50;;;;;;;4.90;2.30;;;;;;;12.69;100.00;99022.19;6085012;19;20542;-71
2023/10/21 08:59:55;;;;;;;6.50;2.58;;;;;;;12.68;100.00;99047.69;6082966;19;20014;-71
2023/10/21 09:02:00;;;;;;;5.10;2.13;;;;;;;12.69;100.00;99038.84;6083675;19;20011;-71
2023/10/21 09:04:09;;;;;;;6.00;2.50;;;;;;;12.73;100.00;99035.00;6090311;19;20006;-70
2023/10/21 09:06:12;;;;;;;3.72;1.90;;;;;;;12.82;100.00;99029.97;6086424;19;20006;-70
2023/10/21 09:08:35;;;;;;;5.68;1.80;;;;;;;12.82;100.00;99048.41;6086545;19;20018;-70
2023/10/21 09:10:39;;;;;;;4.15;2.35;;;;;;;12.80;100.00;99048.56;6087978;19;20013;-70
2023/10/21 09:12:47;;;;;;;3.47;1.90;;;;;;;12.80;100.00;99063.53;6086901;19;20019;-72
2023/10/21 09:14:55;;;;;;;3.88;2.00;;;;;;;12.80;100.00;99051.19;6087154;19;20805;-70
2023/10/21 09:17:01;;;;;;;5.93;2.25;;;;;;;12.82;100.00;99053.69;6084533;19;20095;-70
2023/10/21 09:19:11;;;;;;;4.43;2.10;;;;;;;12.82;100.00;99058.97;6086855;19;20467;-70
2023/10/21 09:21:16;;;;;;;5.40;2.10;;;;;;;12.82;100.00;99066.88;6086546;19;20490;-71
2023/10/21 09:23:21;;;;;;;2.55;1.88;;;;;;;12.88;100.00;99061.97;6087327;19;20011;-71
2023/10/21 09:25:45;;;;;;;4.88;1.95;;;;;;;12.94;100.00;99063.28;6087700;19;20014;-71
2023/10/21 09:27:53;;;;;;;5.65;2.50;;;;;;;13.00;100.00;99089.16;5980098;19;2005262;-71
2023/10/21 09:30:01;;;;;;;7.00;2.90;;;;;;;13.08;100.00;99067.47;6083552;19;20094;-71
2023/10/21 09:32:11;;;;;;;2.22;1.70;;;;;;;13.11;100.00;99070.72;6086328;19;20095;-71
2023/10/21 09:34:33;;;;;;;4.57;1.60;;;;;;;13.16;100.00;99073.81;6087061;19;20010;-71
2023/10/21 09:36:39;;;;;;;4.88;1.95;;;;;;;13.27;100.00;99066.84;6086986;19;20011;-71
2023/10/21 09:38:46;;;;;;;7.35;1.98;;;;;;;13.43;100.00;99085.81;6086264;19;20011;-71
2023/10/21 09:40:54;;;;;;;4.00;2.30;;;;;;;13.56;100.00;99086.50;6085955;19;20018;-70
2023/10/21 09:43:03;;;;;;;2.20;1.40;;;;;;;13.71;100.00;99096.75;6085593;19;20452;-71
2023/10/21 09:45:10;;;;;;;3.40;1.65;;;;;;;13.67;100.00;99084.78;6082266;19;20121;-70
2023/10/21 09:47:16;;;;;;;3.25;1.80;;;;;;;13.80;100.00;99099.50;6086279;19;20013;-71
2023/10/21 09:49:25;;;;;;;1.50;1.40;;;;;;;13.81;100.00;99095.03;6087746;19;20672;-70
2023/10/21 09:51:36;;;;;;;5.10;1.85;;;;;;;13.86;100.00;99098.16;6086921;19;20640;-71